Time;durP1;ratioP1;P1;durP2;ratioP2;P2;SDS_P1;SDS_P2;PMS_P1;PMS_P2;Temp;Humidity;BMP_temperature;BMP_pressure;BME280_temperature;BME280_humidity;BME280_pressure;Samples;Min_cycle;Max_cycle;Signal;HPM_P1;HPM_P2
2023/05/05 00:01:48;;;;;;;;;1.00;1.00;;;;;17.57;62.14;100536.81;5077308;28;45418;-73
2023/05/05 00:04:14;;;;;;;;;0.33;0.33;;;;;17.56;61.87;100530.63;5078565;28;45493;-73
2023/05/05 00:06:39;;;;;;;;;1.00;1.00;;;;;17.43;62.20;100518.31;5059557;28;45502;-74
2023/05/05 00:09:05;;;;;;;;;1.00;1.00;;;;;17.40;61.99;100529.75;5077605;28;45514;-74
2023/05/05 00:11:31;;;;;;;;;1.33;1.33;;;;;17.41;62.24;100539.44;5077885;28;45716;-73
2023/05/05 00:13:57;;;;;;;;;1.33;1.00;;;;;17.42;61.84;100535.03;5078230;28;45361;-73
2023/05/05 00:16:22;;;;;;;;;2.67;1.00;;;;;17.35;63.04;100527.97;5059523;28;46402;-73
2023/05/05 00:18:48;;;;;;;;;1.33;1.00;;;;;17.37;62.61;100537.66;5077753;28;45423;-74
2023/05/05 00:21:14;;;;;;;;;1.00;1.00;;;;;17.30;62.59;100528.84;5076857;28;45366;-73
2023/05/05 00:23:39;;;;;;;;;2.00;1.00;;;;;17.39;62.49;100532.38;5059570;28;45459;-73
2023/05/05 00:26:05;;;;;;;;;1.00;1.00;;;;;17.32;62.77;100525.34;5076855;28;46743;-73
2023/05/05 00:28:31;;;;;;;;;1.00;1.00;;;;;17.29;63.54;100532.38;5059408;28;45515;-73
2023/05/05 00:30:56;;;;;;;;;1.00;1.00;;;;;17.12;63.21;100523.53;5077782;28;45254;-73
2023/05/05 00:33:22;;;;;;;;;1.00;1.00;;;;;17.15;63.22;100526.19;5062117;28;45643;-73
2023/05/05 00:35:47;;;;;;;;;2.67;2.00;;;;;17.13;63.50;100524.38;5077367;27;46461;-74
2023/05/05 00:38:13;;;;;;;;;1.67;1.67;;;;;17.05;63.41;100513.81;5076426;28;45415;-73
2023/05/05 00:40:38;;;;;;;;;1.00;1.00;;;;;17.07;62.34;100507.69;5077584;28;45517;-73
2023/05/05 00:43:04;;;;;;;;;1.00;1.00;;;;;17.07;63.27;100504.16;5093076;27;45430;-73
2023/05/05 00:45:30;;;;;;;;;1.00;1.00;;;;;17.06;62.59;100507.66;5077451;27;45475;-73
2023/05/05 00:47:58;;;;;;;;;1.00;1.00;;;;;16.98;63.38;100498.84;5077480;27;45432;-73
2023/05/05 00:50:28;;;;;;;;;0.00;0.00;;;;;17.01;63.81;100515.59;5076045;28;45401;-73
2023/05/05 00:52:59;;;;;;;;;2.00;1.00;;;;;17.00;64.19;100518.22;5076081;28;45619;-73
2023/05/05 00:55:25;;;;;;;;;2.00;1.00;;;;;16.90;63.71;100506.75;5077174;28;45497;-74
2023/05/05 00:57:50;;;;;;;;;1.00;1.00;;;;;16.88;63.88;100504.09;5077027;27;45230;-73
2023/05/05 01:00:16;;;;;;;;;1.00;1.00;;;;;16.85;63.52;100506.72;5077601;27;45306;-74
2023/05/05 01:02:43;;;;;;;;;2.00;2.00;;;;;16.86;64.14;100502.31;5077474;27;45487;-73
2023/05/05 01:05:09;;;;;;;;;1.00;1.00;;;;;16.81;64.08;100499.69;5076894;27;45264;-74
2023/05/05 01:07:35;;;;;;;;;1.00;1.00;;;;;16.93;63.93;100505.84;5075582;27;45310;-73
2023/05/05 01:10:19;;;;;;;;;1.67;1.00;;;;;16.92;63.89;100505.00;5077117;27;45240;-73
2023/05/05 01:13:27;;;;;;;;;0.33;0.33;;;;;16.89;63.72;100513.78;5079963;27;45308;-73
2023/05/05 01:16:25;;;;;;;;;1.67;1.00;;;;;16.87;64.22;100506.72;5080347;27;46290;-73
2023/05/05 01:18:57;;;;;;;;;1.33;1.33;;;;;16.80;64.33;100504.91;5079236;28;45390;-74
2023/05/05 01:21:42;;;;;;;;;1.00;1.00;;;;;16.72;64.50;100491.69;5079396;28;45303;-73
2023/05/05 01:24:58;;;;;;;;;1.00;1.00;;;;;16.74;63.57;100492.56;5080652;27;45419;-73
2023/05/05 01:27:40;;;;;;;;;1.33;1.33;;;;;16.67;64.36;100498.69;5044480;28;45603;-73
2023/05/05 01:30:45;;;;;;;;;1.00;1.00;;;;;16.64;64.38;100503.97;5080279;28;45412;-73
2023/05/05 01:33:14;;;;;;;;;1.00;1.00;;;;;16.53;64.98;100487.19;5079085;28;45528;-73
2023/05/05 01:35:52;;;;;;;;;3.00;2.00;;;;;16.58;64.65;100501.31;5080418;27;45526;-74
2023/05/05 01:38:26;;;;;;;;;2.00;1.00;;;;;16.49;64.29;100481.03;5079115;28;47607;-73
2023/05/05 01:41:01;;;;;;;;;1.00;1.00;;;;;16.49;64.21;100478.38;5078724;28;45230;-74
2023/05/05 01:43:30;;;;;;;;;1.00;1.00;;;;;16.59;64.53;100505.69;5080359;27;45378;-74
2023/05/05 01:45:58;;;;;;;;;1.00;1.00;;;;;16.49;64.96;100495.13;5095835;27;45413;-74
2023/05/05 01:48:24;;;;;;;;;1.33;1.00;;;;;16.25;64.90;100465.97;5078378;28;46504;-73
2023/05/05 01:50:52;;;;;;;;;1.00;1.00;;;;;16.39;64.61;100485.38;5079038;28;45235;-73
2023/05/05 01:53:21;;;;;;;;;0.67;0.67;;;;;16.45;64.53;100495.97;5080366;27;45489;-74
2023/05/05 01:55:49;;;;;;;;;1.00;1.00;;;;;16.46;64.82;100502.13;5080528;28;45267;-73
2023/05/05 01:58:16;;;;;;;;;3.00;1.00;;;;;16.35;65.30;100495.91;5095329;27;45668;-73
2023/05/05 02:00:43;;;;;;;;;2.00;1.00;;;;;16.33;65.32;100508.19;5079829;28;45222;-74
2023/05/05 02:03:11;;;;;;;;;3.00;2.00;;;;;16.21;66.62;100487.91;5079979;27;45441;-73
2023/05/05 02:05:38;;;;;;;;;1.00;1.00;;;;;16.03;66.13;100491.31;5078622;28;45464;-74
2023/05/05 02:08:05;;;;;;;;;1.00;1.00;;;;;16.14;66.07;100507.22;5079485;28;46120;-74
2023/05/05 02:10:31;;;;;;;;;1.67;1.00;;;;;16.18;65.34;100522.19;5078254;28;45663;-74
2023/05/05 02:13:01;;;;;;;;;1.00;1.00;;;;;16.10;65.92;100516.84;5079760;27;45232;-74
2023/05/05 02:15:28;;;;;;;;;0.67;0.67;;;;;16.01;65.93;100512.38;5079806;28;45515;-74
2023/05/05 02:17:56;;;;;;;;;1.00;1.00;;;;;15.96;65.73;100503.56;5079405;27;45421;-74
2023/05/05 02:20:24;;;;;;;;;1.00;0.67;;;;;15.93;66.23;100493.00;5078392;28;45496;-74
2023/05/05 02:22:49;;;;;;;;;1.67;1.00;;;;;15.84;66.40;100492.94;5080007;27;45276;-74
2023/05/05 02:25:18;;;;;;;;;1.00;1.00;;;;;15.95;66.49;100516.72;5077654;28;45644;-74
2023/05/05 02:27:47;;;;;;;;;1.50;1.00;;;;;15.85;66.62;100515.78;5078104;28;47708;-73
2023/05/05 02:30:17;;;;;;;;;1.00;1.00;;;;;15.82;66.78;100515.75;5079087;28;45226;-73
2023/05/05 02:32:52;;;;;;;;;1.00;1.00;;;;;15.81;66.29;100516.63;5079308;27;45475;-74
2023/05/05 02:35:21;;;;;;;;;1.00;1.00;;;;;15.85;66.40;100523.69;5079521;28;45516;-74
2023/05/05 02:37:52;;;;;;;;;2.00;1.00;;;;;15.73;67.43;100521.81;5079109;28;46631;-73
2023/05/05 02:40:23;;;;;;;;;3.00;2.33;;;;;15.71;67.83;100523.53;5079169;28;45667;-73
2023/05/05 02:42:53;;;;;;;;;0.00;0.00;;;;;15.52;67.53;100501.44;5061048;28;45492;-73
2023/05/05 02:45:21;;;;;;;;;0.00;0.00;;;;;15.59;67.88;100511.13;5079448;28;45396;-73
2023/05/05 02:47:47;;;;;;;;;0.33;0.00;;;;;15.66;67.29;100526.13;5060851;28;45493;-74
2023/05/05 02:50:14;;;;;;;;;2.00;1.00;;;;;15.60;66.79;100504.13;5078862;28;45220;-73
2023/05/05 02:52:40;;;;;;;;;1.00;1.00;;;;;15.70;66.42;100527.03;5079232;28;45337;-74
2023/05/05 02:55:06;;;;;;;;;1.00;1.00;;;;;15.64;66.42;100509.44;5079053;28;45310;-73
2023/05/05 02:57:43;;;;;;;;;1.25;1.00;;;;;15.55;66.29;100493.53;5078825;28;46102;-74
2023/05/05 03:00:23;;;;;;;;;1.00;1.00;;;;;15.61;66.94;100514.66;5078943;28;45305;-74
2023/05/05 03:03:28;;;;;;;;;1.00;1.00;;;;;15.52;67.21;100511.97;5079601;28;45627;-74
2023/05/05 03:06:05;;;;;;;;;1.33;0.67;;;;;15.38;67.02;100495.13;5030570;28;45245;-73
2023/05/05 03:08:48;;;;;;;;;0.00;0.00;;;;;15.37;67.44;100506.53;5078859;28;45974;-73
2023/05/05 03:11:35;;;;;;;;;0.33;0.33;;;;;15.26;67.42;100485.38;5078748;28;45262;-74
2023/05/05 03:14:07;;;;;;;;;3.00;1.67;;;;;15.10;68.79;100505.41;5078713;28;45334;-73
2023/05/05 03:16:42;;;;;;;;;1.00;1.00;;;;;14.94;68.79;100487.66;5060490;28;45265;-73
2023/05/05 03:19:12;;;;;;;;;2.33;1.67;;;;;14.60;69.42;100447.84;5060335;28;46738;-73
2023/05/05 03:21:39;;;;;;;;;1.33;1.00;;;;;14.83;69.10;100488.44;5078655;28;45443;-73
2023/05/05 03:24:16;;;;;;;;;0.33;0.33;;;;;14.98;68.70;100508.78;5078698;28;45336;-74
2023/05/05 03:26:42;;;;;;;;;1.00;1.00;;;;;14.95;68.18;100489.44;5078825;28;45508;-73
2023/05/05 03:29:08;;;;;;;;;1.00;1.00;;;;;14.98;69.01;100500.91;5078063;28;45486;-73
2023/05/05 03:31:34;;;;;;;;;2.00;1.00;;;;;14.80;68.89;100482.25;5078400;28;45170;-73
2023/05/05 03:34:00;;;;;;;;;1.33;1.00;;;;;14.90;69.08;100506.06;5078466;28;45366;-74
2023/05/05 03:36:26;;;;;;;;;1.67;1.00;;;;;14.74;68.49;100485.69;5077575;28;45656;-73
2023/05/05 03:38:52;;;;;;;;;1.00;1.00;;;;;14.71;69.04;100481.28;5060002;28;46233;-73
2023/05/05 03:41:19;;;;;;;;;1.33;1.33;;;;;14.86;68.94;100504.25;5060005;28;45353;-74
2023/05/05 03:43:45;;;;;;;;;2.00;1.00;;;;;14.86;67.74;100499.00;5060076;28;45504;-74
2023/05/05 03:46:10;;;;;;;;;1.00;1.00;;;;;14.82;68.84;100498.94;5060096;28;45639;-73
2023/05/05 03:48:36;;;;;;;;;1.00;1.00;;;;;14.79;69.33;100491.88;5078179;28;45344;-74
2023/05/05 03:51:01;;;;;;;;;2.00;1.00;;;;;14.69;70.28;100490.91;5078264;28;45779;-74
2023/05/05 03:53:27;;;;;;;;;0.67;0.67;;;;;14.71;69.61;100518.09;5078728;28;45579;-74
2023/05/05 03:55:53;;;;;;;;;2.00;1.25;;;;;14.62;69.96;100496.06;5060091;28;45597;-73
2023/05/05 03:58:18;;;;;;;;;1.50;1.00;;;;;14.69;69.83;100511.06;5077560;28;45743;-73
2023/05/05 04:00:44;;;;;;;;;1.00;1.00;;;;;14.65;69.52;100496.09;5059695;28;45495;-74
2023/05/05 04:03:10;;;;;;;;;2.00;1.33;;;;;14.66;69.22;100495.22;5078131;28;45415;-73
2023/05/05 04:05:36;;;;;;;;;1.25;1.00;;;;;14.61;69.54;100482.03;5078260;28;45400;-73
2023/05/05 04:08:02;;;;;;;;;2.00;1.00;;;;;14.61;69.58;100494.31;5077616;28;46067;-73
2023/05/05 04:10:28;;;;;;;;;1.67;0.33;;;;;14.62;69.11;100493.44;5059658;28;45366;-74
2023/05/05 04:12:54;;;;;;;;;2.33;2.00;;;;;14.43;69.10;100480.03;5059375;28;45487;-73
2023/05/05 04:15:19;;;;;;;;;1.00;1.00;;;;;14.46;69.48;100481.78;5059972;28;45575;-73
2023/05/05 04:17:45;;;;;;;;;1.00;1.00;;;;;14.39;70.08;100490.47;5059452;28;46916;-74
2023/05/05 04:20:11;;;;;;;;;1.00;1.00;;;;;14.39;69.94;100488.72;5077790;28;45496;-73
2023/05/05 04:22:36;;;;;;;;;1.00;1.00;;;;;14.47;69.37;100510.75;5077809;28;45403;-72
2023/05/05 04:25:02;;;;;;;;;1.00;1.00;;;;;14.48;69.43;100506.34;5059467;28;45619;-73
2023/05/05 04:27:29;;;;;;;;;1.00;1.00;;;;;14.42;69.41;100499.25;5077756;28;45838;-74
2023/05/05 04:29:55;;;;;;;;;1.00;1.00;;;;;14.33;69.48;100492.16;5059216;28;45571;-74
2023/05/05 04:32:20;;;;;;;;;3.00;2.50;;;;;14.19;70.17;100483.19;5077516;28;45418;-73
2023/05/05 04:34:46;;;;;;;;;1.75;1.75;;;;;14.17;70.48;100499.81;5077489;28;45376;-73
2023/05/05 04:37:12;;;;;;;;;4.25;4.00;;;;;14.22;70.82;100522.63;5077350;28;45305;-73
2023/05/05 04:39:37;;;;;;;;;0.50;0.00;;;;;14.03;71.01;100513.63;5077400;28;45452;-74
2023/05/05 04:42:03;;;;;;;;;2.00;1.50;;;;;13.95;71.27;100511.72;5077172;28;45473;-73
2023/05/05 04:44:29;;;;;;;;;2.00;1.25;;;;;13.95;70.88;100520.50;5059523;28;45598;-73
2023/05/05 04:46:55;;;;;;;;;1.25;1.00;;;;;13.88;71.68;100508.13;5060882;28;46080;-74
2023/05/05 04:49:20;;;;;;;;;1.25;1.00;;;;;14.08;71.30;100543.44;5065575;28;45613;-74
2023/05/05 04:51:46;;;;;;;;;2.00;2.00;;;;;14.01;71.18;100520.59;5084169;28;45401;-73
2023/05/05 04:54:12;;;;;;;;;2.50;1.75;;;;;13.96;71.62;100517.00;5084351;28;45319;-74
2023/05/05 04:56:37;;;;;;;;;2.50;1.75;;;;;13.98;71.03;100515.28;5065583;28;46313;-73
2023/05/05 04:59:03;;;;;;;;;2.75;2.00;;;;;14.07;72.03;100540.81;5083983;28;45223;-73
2023/05/05 05:01:28;;;;;;;;;1.00;1.00;;;;;14.06;71.76;100537.28;5084289;28;45270;-74
2023/05/05 05:03:54;;;;;;;;;2.00;2.00;;;;;14.03;71.17;100521.50;5084056;28;45627;-74
2023/05/05 05:06:19;;;;;;;;;2.25;1.00;;;;;14.25;70.70;100545.47;5083679;28;46515;-73
2023/05/05 05:08:45;;;;;;;;;1.00;1.00;;;;;14.24;70.23;100535.81;5065345;28;45710;-73
2023/05/05 05:11:11;;;;;;;;;1.00;1.00;;;;;14.34;70.03;100542.97;5083824;28;45375;-73
2023/05/05 05:13:36;;;;;;;;;1.25;1.25;;;;;14.39;69.75;100545.66;5083997;28;45449;-73
2023/05/05 05:16:02;;;;;;;;;2.00;1.75;;;;;14.39;69.54;100538.66;5083382;28;46505;-74
2023/05/05 05:18:27;;;;;;;;;1.25;1.00;;;;;14.44;69.36;100538.72;5065208;28;45517;-74
2023/05/05 05:20:53;;;;;;;;;0.50;0.50;;;;;14.44;69.21;100531.75;5083846;28;45445;-73
2023/05/05 05:23:18;;;;;;;;;1.00;1.00;;;;;14.59;69.08;100557.38;5084018;28;45263;-74
2023/05/05 05:25:44;;;;;;;;;2.00;1.50;;;;;14.69;68.63;100555.75;5083793;28;45408;-74
2023/05/05 05:28:10;;;;;;;;;1.50;1.50;;;;;14.72;68.63;100558.41;5065147;28;45264;-74
2023/05/05 05:30:35;;;;;;;;;2.50;1.00;;;;;14.91;68.13;100568.31;5083354;28;45497;-75
2023/05/05 05:33:01;;;;;;;;;1.75;1.75;;;;;14.93;67.68;100570.09;5083745;28;45515;-74
2023/05/05 05:35:26;;;;;;;;;1.00;1.00;;;;;15.02;67.61;100564.91;5083482;28;45605;-74
2023/05/05 05:37:52;;;;;;;;;9.75;6.00;;;;;15.09;67.42;100565.00;5083371;28;45355;-74
2023/05/05 05:40:18;;;;;;;;;3.00;2.00;;;;;15.06;67.38;100557.09;5083597;28;45482;-74
2023/05/05 05:42:43;;;;;;;;;3.00;2.25;;;;;14.68;67.30;100485.59;5083448;28;45508;-74
2023/05/05 05:45:09;;;;;;;;;1.00;1.00;;;;;15.22;67.07;100565.16;5065126;28;47049;-75
2023/05/05 05:47:35;;;;;;;;;3.00;2.00;;;;;15.43;66.42;100589.09;5083877;28;45604;-74
2023/05/05 05:50:01;;;;;;;;;6.00;4.00;;;;;15.35;66.82;100577.59;5065433;28;45345;-74
2023/05/05 05:52:26;;;;;;;;;4.00;4.00;;;;;15.39;66.46;100565.34;5083180;28;45336;-74
2023/05/05 05:54:52;;;;;;;;;11.00;6.25;;;;;15.49;66.45;100581.25;5083322;28;45420;-74
2023/05/05 05:57:17;;;;;;;;;3.25;3.00;;;;;15.58;66.23;100576.94;5064944;28;45563;-74
2023/05/05 05:59:43;;;;;;;;;5.50;2.75;;;;;15.77;65.83;100593.84;5079481;28;45485;-75
2023/05/05 06:02:09;;;;;;;;;3.00;2.00;;;;;15.69;65.80;100583.19;5057813;28;45497;-73
2023/05/05 06:04:34;;;;;;;;;2.25;2.00;;;;;15.87;66.01;100604.47;5057874;28;45527;-73
2023/05/05 06:07:00;;;;;;;;;4.25;2.00;;;;;15.98;65.54;100591.41;5057707;28;45418;-73
2023/05/05 06:09:25;;;;;;;;;3.75;2.25;;;;;16.16;65.16;100584.53;5057790;28;45431;-73
2023/05/05 06:11:51;;;;;;;;;2.00;1.00;;;;;16.28;64.44;100572.31;5058567;28;45538;-74
2023/05/05 06:14:16;;;;;;;;;2.00;1.33;;;;;16.64;63.50;100580.47;5059344;28;46199;-74
2023/05/05 06:16:43;;;;;;;;;2.25;2.00;;;;;17.64;62.35;100587.00;5041034;28;45307;-73
2023/05/05 06:19:09;;;;;;;;;3.25;3.00;;;;;19.34;58.00;100582.34;5059519;28;45463;-74
2023/05/05 06:21:37;;;;;;;;;2.67;2.33;;;;;21.78;52.71;100586.09;5059492;28;45446;-73
2023/05/05 06:24:03;;;;;;;;;2.33;2.00;;;;;22.60;49.18;100570.50;5040790;28;45696;-74
2023/05/05 06:26:30;;;;;;;;;2.00;1.00;;;;;23.18;47.47;100576.47;5040623;28;45875;-74
2023/05/05 06:28:56;;;;;;;;;2.00;2.00;;;;;24.55;45.60;100575.84;5058748;28;45529;-73
2023/05/05 06:31:21;;;;;;;;;2.67;1.00;;;;;26.25;41.59;100576.03;5040342;28;45653;-74
2023/05/05 06:33:47;;;;;;;;;1.00;1.00;;;;;27.40;38.80;100568.25;5068177;28;45563;-74
2023/05/05 06:36:13;;;;;;;;;2.00;1.00;;;;;28.46;37.88;100588.06;5077594;28;45547;-74
2023/05/05 06:38:38;;;;;;;;;1.67;1.67;;;;;29.65;36.01;100583.53;5079063;28;45472;-74
2023/05/05 06:41:04;;;;;;;;;2.33;2.00;;;;;30.55;34.62;100594.28;5079024;27;45515;-74
2023/05/05 06:43:30;;;;;;;;;2.67;2.00;;;;;31.09;33.20;100578.81;5078675;27;46250;-74
2023/05/05 06:45:55;;;;;;;;;2.00;2.00;;;;;31.50;32.87;100588.28;5078725;27;45394;-74
2023/05/05 06:48:21;;;;;;;;;1.67;1.67;;;;;31.32;32.00;100582.06;5077635;28;45351;-74
2023/05/05 06:50:46;;;;;;;;;2.00;2.00;;;;;31.24;32.61;100579.78;5079028;27;45391;-74
2023/05/05 06:53:12;;;;;;;;;1.33;1.33;;;;;31.75;32.71;100589.56;5077213;28;46412;-74
2023/05/05 06:55:37;;;;;;;;;2.67;2.00;;;;;32.23;32.08;100588.56;5078941;27;45472;-74
2023/05/05 06:58:03;;;;;;;;;1.67;1.67;;;;;32.73;30.66;100591.88;5077727;28;45360;-75
2023/05/05 07:00:28;;;;;;;;;1.67;0.67;;;;;33.38;30.08;100577.81;5078783;27;45586;-75
2023/05/05 07:02:54;;;;;;;;;1.00;1.00;;;;;33.97;28.34;100590.25;5094032;27;46375;-76
2023/05/05 07:05:19;;;;;;;;;1.33;1.00;;;;;34.24;27.94;100583.00;5077257;28;45447;-75
2023/05/05 07:07:52;;;;;;;;;3.00;0.33;;;;;34.83;27.50;100587.06;5078490;27;45322;-76
2023/05/05 07:10:19;;;;;;;;;0.67;0.33;;;;;35.55;26.38;100584.56;5077229;28;45558;-75
2023/05/05 07:12:45;;;;;;;;;0.00;0.00;;;;;35.94;26.32;100585.28;5077131;28;45591;-75
2023/05/05 07:15:11;;;;;;;;;0.00;0.00;;;;;36.59;26.54;100596.63;5078642;28;45350;-75
2023/05/05 07:17:36;;;;;;;;;1.33;1.33;;;;;37.03;24.55;100595.88;5077588;28;45522;-77
2023/05/05 07:20:02;;;;;;;;;0.00;0.00;;;;;37.06;24.14;100583.00;5077466;28;45425;-74
2023/05/05 07:22:28;;;;;;;;;0.00;0.00;;;;;37.45;24.60;100586.22;5078204;27;46363;-79
2023/05/05 07:24:53;;;;;;;;;0.00;0.00;;;;;37.24;24.25;100577.94;5077126;28;45403;-81
2023/05/05 07:27:22;;;;;;;;;0.00;0.00;;;;;37.64;23.13;100583.69;5077186;28;45571;-75
2023/05/05 07:29:47;;;;;;;;;1.67;0.67;;;;;36.09;24.49;100587.81;5078317;27;45465;-76
2023/05/05 07:32:13;;;;;;;;;0.00;0.00;;;;;36.00;25.68;100601.13;5077546;27;45433;-74
2023/05/05 07:34:39;;;;;;;;;0.00;0.00;;;;;36.31;24.53;100584.34;5084687;27;45575;-74
2023/05/05 07:37:05;;;;;;;;;0.00;0.00;;;;;36.85;24.60;100599.19;5077809;27;45610;-76
2023/05/05 07:39:32;;;;;;;;;1.00;0.00;;;;;37.56;23.33;100578.84;5073134;28;45712;-76
2023/05/05 07:41:57;;;;;;;;;0.00;0.00;;;;;38.76;22.21;100576.00;5092340;27;45723;-77
2023/05/05 07:44:23;;;;;;;;;0.33;0.00;;;;;39.51;21.70;100577.44;5077532;27;45404;-74
2023/05/05 07:46:48;;;;;;;;;0.67;0.67;;;;;39.13;21.78;100591.84;5084175;27;45404;-81
2023/05/05 07:49:15;;;;;;;;;1.33;1.00;;;;;39.06;22.20;100577.88;5076897;27;45676;-75
2023/05/05 07:51:41;;;;;;;;;1.00;0.00;;;;;39.22;22.75;100588.28;5077296;27;46224;-74
2023/05/05 07:54:07;;;;;;;;;0.33;0.33;;;;;39.15;21.49;100581.63;5076970;27;45328;-76
2023/05/05 07:56:32;;;;;;;;;2.00;0.00;;;;;38.77;21.96;100573.09;5092372;27;45326;-78
2023/05/05 07:58:58;;;;;;;;;0.00;0.00;;;;;38.59;22.29;100555.63;5084303;27;45434;-77
2023/05/05 08:01:23;;;;;;;;;0.33;0.33;;;;;38.72;22.05;100553.56;5076200;27;46686;-78
2023/05/05 08:03:49;;;;;;;;;0.00;0.00;;;;;38.94;21.64;100566.16;5076988;27;45412;-79
2023/05/05 08:06:15;;;;;;;;;2.00;0.00;;;;;39.19;21.58;100558.50;5076768;27;45302;-74
2023/05/05 08:08:41;;;;;;;;;0.00;0.00;;;;;39.37;20.79;100545.88;5076164;28;45720;-74
2023/05/05 08:11:06;;;;;;;;;0.00;0.00;;;;;39.73;21.52;100557.19;5076957;27;45705;-74
2023/05/05 08:13:33;;;;;;;;;0.67;0.00;;;;;40.50;21.38;100549.09;5076283;28;45698;-79
2023/05/05 08:15:59;;;;;;;;;0.67;0.00;;;;;40.85;20.20;100561.25;5087850;27;45445;-77
2023/05/05 08:18:25;;;;;;;;;0.00;0.00;;;;;40.54;19.95;100558.75;5077382;28;45429;-76
2023/05/05 08:20:51;;;;;;;;;0.00;0.00;;;;;39.84;20.46;100558.06;5076693;27;45544;-75
2023/05/05 08:23:17;;;;;;;;;0.00;0.00;;;;;40.67;20.69;100539.22;5074812;28;45417;-75
2023/05/05 08:25:43;;;;;;;;;1.67;0.67;;;;;41.85;20.23;100538.47;5076511;27;45541;-74
2023/05/05 08:28:08;;;;;;;;;1.67;1.00;;;;;41.75;20.95;100556.03;5076745;27;45563;-79
2023/05/05 08:30:35;;;;;;;;;2.67;1.67;;;;;41.83;19.86;100561.59;5082932;27;46471;-74
2023/05/05 08:33:00;;;;;;;;;0.00;0.00;;;;;41.75;20.09;100536.84;5089994;27;45538;-79
2023/05/05 08:35:26;;;;;;;;;2.33;1.67;;;;;42.37;19.90;100534.94;5048375;28;45550;-78
2023/05/05 08:37:51;;;;;;;;;2.33;1.67;;;;;41.80;19.15;100543.53;5046895;28;45639;-74
2023/05/05 08:40:19;;;;;;;;;1.67;1.00;;;;;41.27;19.90;100545.22;5066550;27;45438;-75
2023/05/05 08:42:45;;;;;;;;;1.00;1.00;;;;;40.91;19.57;100528.66;5067078;28;45655;-75
2023/05/05 08:45:11;;;;;;;;;1.00;1.00;;;;;40.71;20.52;100525.13;5066990;28;45719;-75
2023/05/05 08:47:37;;;;;;;;;1.00;0.00;;;;;40.49;20.53;100534.56;5065312;28;45434;-78
2023/05/05 08:50:04;;;;;;;;;0.33;0.33;;;;;41.11;20.39;100534.03;5058378;28;48287;-76
2023/05/05 08:52:52;;;;;;;;;3.67;3.00;;;;;40.65;20.57;100535.78;5051972;28;45508;-74
2023/05/05 08:55:27;;;;;;;;;1.00;1.00;;;;;41.11;20.87;100534.91;5052702;28;45337;-74
2023/05/05 08:57:57;;;;;;;;;1.00;0.67;;;;;41.73;20.99;100524.13;5046198;28;45243;-75
2023/05/05 09:00:25;;;;;;;;;1.67;0.67;;;;;41.98;20.66;100529.81;5064872;28;46482;-76
2023/05/05 09:02:51;;;;;;;;;1.00;1.00;;;;;41.97;19.71;100522.63;5065113;28;45432;-74
2023/05/05 09:05:17;;;;;;;;;0.67;0.67;;;;;42.51;19.93;100504.16;5065789;28;45517;-76
2023/05/05 09:07:43;;;;;;;;;1.00;1.00;;;;;42.16;20.41;100505.09;5051340;28;45233;-75
2023/05/05 09:10:10;;;;;;;;;2.00;1.00;;;;;42.80;19.91;100513.94;5065878;28;45501;-73
2023/05/05 09:12:40;;;;;;;;;2.00;2.00;;;;;42.59;18.76;100516.22;5064983;28;45869;-73
2023/05/05 09:15:11;;;;;;;;;1.33;0.67;;;;;42.63;19.00;100506.63;5066313;28;45391;-73
2023/05/05 09:17:38;;;;;;;;;1.67;1.67;;;;;42.08;19.68;100518.78;5048235;28;45873;-73
2023/05/05 09:20:06;;;;;;;;;2.00;1.33;;;;;41.93;19.90;100494.63;5043456;28;46476;-73
2023/05/05 09:22:35;;;;;;;;;2.33;2.33;;;;;41.65;19.99;100504.84;5051434;28;45589;-73
2023/05/05 09:25:00;;;;;;;;;1.33;1.00;;;;;41.65;19.96;100496.63;5072392;28;45519;-74
2023/05/05 09:27:26;;;;;;;;;1.00;1.00;;;;;41.75;19.21;100506.66;5048778;28;45603;-75
2023/05/05 09:29:53;;;;;;;;;0.33;0.33;;;;;41.81;20.62;100495.06;5065381;28;46222;-73
2023/05/05 09:32:19;;;;;;;;;2.00;1.33;;;;;41.67;20.15;100494.59;5046777;28;45470;-73
2023/05/05 09:34:59;;;;;;;;;1.67;1.67;;;;;40.84;20.18;100493.81;5068837;28;45584;-74
2023/05/05 09:37:29;;;;;;;;;1.00;1.00;;;;;41.04;20.19;100495.41;5064353;28;45532;-73
2023/05/05 09:39:56;;;;;;;;;1.67;1.00;;;;;40.93;20.11;100501.97;5043725;28;45486;-73
2023/05/05 09:42:22;;;;;;;;;2.00;1.33;;;;;41.13;20.92;100490.91;5069839;28;45470;-73
2023/05/05 09:44:47;;;;;;;;;0.33;0.00;;;;;41.02;20.86;100482.88;5070717;28;45560;-73
2023/05/05 09:47:13;;;;;;;;;1.00;0.00;;;;;40.80;21.35;100486.91;5071424;28;45348;-74
2023/05/05 09:49:39;;;;;;;;;2.00;2.00;;;;;40.27;20.81;100483.75;5073005;28;46138;-73
2023/05/05 09:52:14;;;;;;;;;4.00;2.00;;;;;39.88;21.24;100494.75;5057338;28;45969;-73
2023/05/05 09:54:41;;;;;;;;;2.00;1.00;;;;;39.45;21.76;100482.34;5079399;28;45637;-73
2023/05/05 09:57:07;;;;;;;;;2.33;1.67;;;;;39.17;22.18;100489.47;5079875;28;45433;-73
2023/05/05 09:59:33;;;;;;;;;1.00;0.67;;;;;38.60;22.55;100472.75;5079582;28;46325;-73
2023/05/05 10:02:12;;;;;;;;;2.00;1.33;;;;;38.17;23.35;100491.00;5079129;28;45306;-73
2023/05/05 10:04:38;;;;;;;;;2.00;1.00;;;;;37.75;23.58;100482.81;5079791;28;45387;-73
2023/05/05 10:07:04;;;;;;;;;1.00;0.67;;;;;37.36;23.68;100481.56;5079654;28;45601;-74
2023/05/05 10:09:32;;;;;;;;;0.67;0.67;;;;;37.14;24.26;100468.88;5078876;28;45835;-74
2023/05/05 10:12:02;;;;;;;;;0.00;0.00;;;;;37.13;24.50;100480.78;5078919;28;45553;-73
2023/05/05 10:14:30;;;;;;;;;1.00;1.00;;;;;36.15;25.48;100475.84;5077634;28;45325;-73
2023/05/05 10:17:02;;;;;;;;;0.67;0.33;;;;;35.89;25.48;100486.91;5079104;28;45331;-73
2023/05/05 10:19:33;;;;;;;;;1.00;0.67;;;;;35.88;25.88;100479.75;5078445;28;46488;-74
2023/05/05 10:22:02;;;;;;;;;1.00;0.00;;;;;35.83;25.76;100481.94;5060414;28;45677;-73
2023/05/05 10:24:41;;;;;;;;;2.00;2.00;;;;;35.57;26.56;100484.78;5078999;28;45209;-73
2023/05/05 10:27:13;;;;;;;;;2.67;1.67;;;;;35.85;26.32;100477.25;5067222;28;45606;-74
2023/05/05 10:29:49;;;;;;;;;1.33;1.33;;;;;36.08;25.55;100455.59;5058156;28;45390;-73
2023/05/05 10:32:27;;;;;;;;;1.00;1.00;;;;;35.97;26.40;100465.47;5040245;28;45415;-76
2023/05/05 10:34:58;;;;;;;;;2.00;2.00;;;;;35.93;25.90;100461.22;5076708;28;45540;-73
2023/05/05 10:37:26;;;;;;;;;2.00;1.67;;;;;35.84;26.15;100470.97;5078901;27;45509;-73
2023/05/05 10:39:54;;;;;;;;;1.67;1.00;;;;;35.64;26.32;100458.03;5078819;27;45279;-74
2023/05/05 10:42:22;;;;;;;;;1.67;1.67;;;;;35.56;26.50;100474.06;5075457;28;45887;-71
2023/05/05 10:44:52;;;;;;;;;2.00;2.00;;;;;35.15;27.18;100465.28;5078349;27;45322;-71
2023/05/05 10:47:20;;;;;;;;;0.00;0.00;;;;;34.63;27.90;100450.09;5077843;28;45640;-73
2023/05/05 10:50:08;;;;;;;;;0.67;0.00;;;;;34.83;27.57;100460.38;5078291;27;46489;-73
2023/05/05 10:52:50;;;;;;;;;2.00;1.00;;;;;34.46;27.37;100460.31;5077915;27;45540;-73
2023/05/05 10:55:28;;;;;;;;;1.67;1.00;;;;;33.53;29.42;100456.81;5077460;28;45520;-72
2023/05/05 10:57:54;;;;;;;;;0.00;0.00;;;;;33.00;29.54;100453.94;5078578;27;45392;-71
2023/05/05 11:00:38;;;;;;;;;2.00;2.00;;;;;31.62;31.54;100466.06;5077425;28;46146;-71
2023/05/05 11:03:16;;;;;;;;;1.00;1.00;;;;;30.90;33.10;100456.72;5078273;27;45594;-72
2023/05/05 11:06:03;;;;;;;;;0.00;0.00;;;;;30.83;32.26;100469.63;5078049;28;45474;-73
2023/05/05 11:08:39;;;;;;;;;1.00;1.00;;;;;30.00;34.18;100462.41;5078478;27;45449;-72
2023/05/05 11:11:05;;;;;;;;;1.00;1.00;;;;;29.31;34.32;100437.19;5078075;28;46378;-72
2023/05/05 11:13:31;;;;;;;;;1.33;1.33;;;;;28.82;35.53;100447.59;5078158;27;45406;-72
2023/05/05 11:15:59;;;;;;;;;1.67;0.67;;;;;28.55;36.17;100462.28;5076178;28;45596;-72
2023/05/05 11:18:43;;;;;;;;;1.00;1.00;;;;;27.88;37.27;100463.44;5078484;28;45476;-72
2023/05/05 11:21:14;;;;;;;;;2.00;2.00;;;;;27.76;38.04;100466.63;5077774;28;45263;-72
2023/05/05 11:23:51;;;;;;;;;1.00;1.00;;;;;27.27;38.51;100447.19;5077780;27;45452;-73
2023/05/05 11:26:38;;;;;;;;;2.00;2.00;;;;;27.26;37.70;100456.19;5075218;27;45529;-72
2023/05/05 11:29:04;;;;;;;;;1.00;1.00;;;;;27.01;38.92;100449.09;5077896;28;45326;-73
2023/05/05 11:31:32;;;;;;;;;2.33;2.33;;;;;26.77;38.90;100432.16;5077557;27;46535;-73